Terminal Aerodrome Forecast
Issued by NWS Cleveland, OH

Home | Current Version | Previous Version | Graphics & Text | Print | Product List | Glossary Off
Versions: 1 2 3 4 5 6 7 8 9 10 11 12 13 14 15 16 17 18 19 20 21 22 23

000
FTUS41 KCLE 301800 AAB
TAFMFD
TAF AMD
KMFD 301857Z 3019/0118 34007KT P6SM SCT009 OVC018
      TEMPO 3020/3022 BKN020
     FM302200 35008KT P6SM BKN020
     FM010500 03003KT 2SM BR BKN003
     FM010800 03002KT 1/2SM FG VV002
     FM011500 08003KT P6SM BKN009=

USA.gov is the U.S. government's official web portal to all federal, state and local government web resources and services.